Latest Weather Observations for Devonport Airport

IDT60801

Issued at 3:35 am EST Friday 25 April 2014 (issued every 30 minutes, with the page automatically refreshed every 10 minutes)

About weather observations | Map of weather stations | Latest weather observations for TAS | Other Formats
Station Details ID: 091126 Name: DEVONPORT AIRPORT Lat: -41.17 Lon: 146.43 Height: 8.0 m
Data from the previous 72 hours. | See also: Recent months at Devonport Airport
Date/Time
EST
Temp
°C
App
Temp
°C
Dew
Point
Rel
Hum
%
Delta-T
°C
Wind Press
QNH
hPa
Press
MSL
hPa
Rain
since 9 am
mm
Dir
 
Spd
km/h
Gust
km/h
Spd
kts
Gust
kts
25/03:30am 3.3 -1.3 1.7 89 0.6 S 15 17 8 9 1020.4 - 0.0
25/03:00am 3.2 -1.0 1.6 89 0.6 S 13 15 7 8 1020.6 1020.6 0.0
25/02:30am 2.9 -1.4 1.0 87 0.7 S 13 15 7 8 1020.6 - 0.0
25/02:00am 4.4 0.3 2.4 87 0.8 S 13 15 7 8 1020.8 - 0.0
25/01:30am 4.8 1.9 2.5 85 0.9 SW 7 9 4 5 1020.9 - 0.0
25/01:00am 4.1 0.3 2.0 86 0.8 S 11 13 6 7 1020.8 - 0.0
25/12:30am 4.7 0.6 2.4 85 0.9 S 13 13 7 7 1020.8 - 0.0
25/12:00am 4.2 1.2 1.9 85 0.9 S 7 9 4 5 1020.6 1020.6 0.0
 
Date/Time
EST
Temp
°C
App
Temp
°C
Dew
Point
Rel
Hum
%
Delta-T
°C
Wind Press
QNH
hPa
Press
MSL
hPa
Rain
since 9 am
mm
Dir
 
Spd
km/h
Gust
km/h
Spd
kts
Gust
kts
24/11:30pm 3.7 0.5 0.6 80 1.2 WSW 7 9 4 5 1020.6 - 0.0
24/11:00pm 5.8 1.7 2.3 78 1.4 WSW 13 15 7 8 1020.6 - 0.0
24/10:30pm 5.9 3.0 2.4 78 1.4 SW 7 11 4 6 1020.7 - 0.0
24/10:00pm 6.2 3.3 2.5 77 1.5 SW 7 11 4 6 1020.5 - 0.0
24/09:30pm 5.8 1.3 1.9 76 1.6 W 15 17 8 9 1020.1 - 0.0
24/09:00pm 6.1 1.1 1.6 73 1.8 W 17 19 9 10 1019.5 1019.5 0.0
24/08:30pm 6.4 1.4 1.5 71 2.0 W 17 20 9 11 1019.0 - 0.0
24/08:00pm 7.5 3.4 2.2 69 2.2 W 13 17 7 9 1018.8 - 0.0
24/07:30pm 8.3 2.5 2.5 67 2.4 W 22 26 12 14 1018.0 - 0.0
24/07:00pm 8.0 3.1 2.3 67 2.4 W 17 20 9 11 1017.7 - 0.0
24/06:30pm 7.4 3.6 1.7 67 2.3 W 11 15 6 8 1017.0 - 0.0
24/06:00pm 8.8 3.2 1.0 58 3.2 W 20 26 11 14 1016.2 1016.2 0.0
24/05:30pm 9.3 3.7 1.0 56 3.4 W 20 24 11 13 1015.6 - 0.0
24/05:00pm 11.2 4.8 0.9 49 4.3 WSW 24 32 13 17 1015.1 - 0.0
24/04:30pm 11.8 4.6 0.6 46 4.6 WSW 28 37 15 20 1014.3 - 0.0
24/04:11pm 12.4 4.6 -0.8 40 5.3 W 30 48 16 26 1013.9 - 0.0
24/04:00pm 12.7 5.2 1.1 45 4.9 W 30 41 16 22 1013.7 - 0.0
24/03:30pm 13.3 6.8 0.3 41 5.4 WSW 24 35 13 19 1013.1 - 0.0
24/03:00pm 13.6 6.4 0.6 41 5.5 WSW 28 43 15 23 1012.6 1012.6 0.0
24/02:30pm 13.1 6.9 2.4 48 4.7 SW 24 32 13 17 1012.3 - 0.0
24/02:00pm 13.7 6.1 3.8 51 4.5 WSW 33 44 18 24 1011.6 - 0.0
24/01:50pm 13.6 6.2 3.9 52 4.4 WSW 32 50 17 27 1011.5 - 0.0
24/01:30pm 13.1 5.3 2.6 49 4.6 WSW 33 46 18 25 1011.2 - 0.0
24/01:29pm 13.4 5.7 3.2 50 4.5 WSW 33 52 18 28 1011.3 - 0.0
24/01:00pm 13.1 7.3 2.4 48 4.7 WSW 22 33 12 18 1010.9 - 0.0
24/12:30pm 13.0 6.9 2.8 50 4.5 SW 24 32 13 17 1010.5 - 0.0
24/12:00pm 12.5 6.3 4.5 58 3.6 SW 26 33 14 18 1010.6 1010.6 0.0
24/11:46am 11.6 4.9 3.6 58 3.5 SW 28 46 15 25 1010.4 - 0.0
24/11:30am 13.5 6.2 4.6 55 4.1 WSW 32 44 17 24 1010.2 - 0.0
24/11:00am 12.1 4.2 4.1 58 3.6 W 35 50 19 27 1009.6 - 0.0
24/10:30am 12.2 4.3 4.4 59 3.5 W 35 48 19 26 1008.9 - 0.0
24/10:00am 11.7 4.3 4.9 63 3.1 WSW 33 52 18 28 1008.4 - 0.0
24/09:56am 11.6 4.3 4.3 61 3.3 WSW 32 52 17 28 1008.4 - 0.0
24/09:30am 11.8 5.1 5.4 65 3.0 W 30 46 16 25 1008.1 - 0.0
24/09:14am 11.6 4.8 5.3 65 2.9 W 30 48 16 26 1007.6 - 0.0
24/09:00am 11.4 4.7 5.5 67 2.7 W 30 44 16 24 1007.3 1007.3 4.2
24/08:30am 11.3 4.7 6.2 71 2.4 W 30 39 16 21 1006.7 - 4.2
24/08:00am 11.1 4.1 6.8 75 2.0 W 33 48 18 26 1006.0 - 4.2
24/07:30am 11.5 5.0 8.0 79 1.7 WNW 32 39 17 21 1004.9 - 4.2
24/07:00am 12.1 5.4 8.0 76 2.0 W 33 46 18 25 1004.3 - 4.2
24/06:30am 12.0 6.7 8.5 79 1.7 WNW 26 39 14 21 1004.0 - 4.2
24/06:00am 10.8 7.3 8.6 86 1.1 WNW 17 20 9 11 1003.9 1003.9 4.2
24/05:30am 10.5 5.5 8.1 85 1.2 W 24 35 13 19 1004.1 - 3.8
24/05:00am 11.9 6.0 9.1 83 1.4 W 30 41 16 22 1003.5 - 1.8
24/04:44am 12.0 5.5 9.0 82 1.5 WSW 33 54 18 29 1002.3 - 1.6
24/04:39am 11.9 5.0 8.9 82 1.5 WSW 35 65 19 35 1002.3 - 1.6
24/04:33am 12.0 5.5 9.0 82 1.5 WSW 33 83 18 45 1002.0 - 1.6
24/04:30am 12.1 0.6 8.8 80 1.6 W 59 83 32 45 1001.8 - 1.6
24/04:27am 12.6 0.1 9.2 80 1.7 W 65 83 35 45 1001.3 - 1.4
24/04:26am 13.0 1.2 10.4 84 1.3 WNW 63 80 34 43 1001.2 - 1.2
24/04:06am 15.3 6.6 12.4 83 1.6 NNW 50 69 27 37 1001.8 - 1.0
24/04:00am 16.2 6.9 11.8 75 2.4 NW 52 69 28 37 1001.8 - 1.0
24/03:38am 16.6 6.2 10.7 68 3.1 NNW 56 78 30 42 1001.9 - 1.0
24/03:30am 16.4 6.4 10.9 70 2.9 NNW 54 70 29 38 1002.2 - 1.0
24/03:06am 16.4 7.2 10.9 70 2.9 NNW 50 69 27 37 1002.7 - 1.0
24/03:00am 16.2 7.1 11.2 72 2.7 NNW 50 61 27 33 1003.1 1003.1 1.0
24/02:30am 16.2 8.1 10.7 70 2.9 NNW 44 57 24 31 1004.1 - 1.0
24/02:00am 15.9 7.0 10.7 71 2.8 NNW 48 57 26 31 1005.0 - 1.0
24/01:30am 15.6 7.1 10.6 72 2.6 NNW 46 57 25 31 1005.6 - 1.0
24/01:00am 15.9 8.8 10.9 72 2.7 NW 39 46 21 25 1006.4 - 1.0
24/12:30am 15.6 8.0 10.4 71 2.7 NW 41 52 22 28 1007.2 - 1.0
24/12:00am 15.5 7.8 10.1 70 2.8 NW 41 52 22 28 1007.5 1007.5 1.0
 
Date/Time
EST
Temp
°C
App
Temp
°C
Dew
Point
Rel
Hum
%
Delta-T
°C
Wind Press
QNH
hPa
Press
MSL
hPa
Rain
since 9 am
mm
Dir
 
Spd
km/h
Gust
km/h
Spd
kts
Gust
kts
23/11:30pm 15.3 8.9 10.7 74 2.4 NW 35 48 19 26 1008.1 - 1.0
23/11:00pm 15.1 8.5 9.9 71 2.7 NW 35 46 19 25 1008.6 - 1.0
23/10:30pm 14.6 8.2 10.8 78 2.0 NW 35 48 19 26 1009.1 - 1.0
23/10:00pm 14.9 8.9 10.7 76 2.2 NNW 33 43 18 23 1009.5 - 0.8
23/09:30pm 15.1 8.4 11.1 77 2.1 NW 37 44 20 24 1009.8 - 0.8
23/09:04pm 14.3 9.5 11.5 83 1.5 NW 28 46 15 25 1010.1 - 0.8
23/09:00pm 14.8 9.3 11.8 82 1.6 NW 32 46 17 25 1010.0 1010.0 0.8
23/08:57pm 14.9 10.2 11.9 82 1.6 NW 28 46 15 25 1009.9 - 0.8
23/08:30pm 13.6 9.9 11.5 87 1.1 NW 22 35 12 19 1010.4 - 0.2
23/08:17pm 14.4 9.4 10.8 79 1.9 NW 28 37 15 20 1010.5 - 0.0
23/08:00pm 12.8 11.6 9.6 81 1.6 WSW 6 17 3 9 1010.6 - 0.0
23/07:30pm 12.6 10.7 9.2 80 1.7 SW 9 11 5 6 1010.8 - 0.0
23/07:00pm 12.7 9.8 9.5 81 1.6 W 15 19 8 10 1010.9 - 0.0
23/06:30pm 13.6 9.5 10.2 80 1.8 W 22 32 12 17 1010.9 - 0.0
23/06:00pm 14.5 10.1 10.5 77 2.1 WNW 24 32 13 17 1010.9 1010.9 0.0
23/05:30pm 14.6 9.4 10.4 76 2.2 NW 28 37 15 20 1010.9 - 0.0
23/05:00pm 13.8 9.3 11.5 86 1.2 NW 26 32 14 17 1011.1 - 0.0
23/04:52pm 13.7 10.0 11.6 87 1.1 NW 22 32 12 17 1011.2 - 0.0
23/04:39pm 13.6 8.0 11.5 87 1.1 NW 32 43 17 23 1011.3 - 0.0
23/04:30pm 14.5 9.0 10.7 78 2.0 WNW 30 39 16 21 1011.3 - 0.0
23/04:00pm 15.1 10.5 10.9 76 2.2 NNW 26 35 14 19 1011.5 - 0.0
23/03:30pm 15.0 10.7 12.0 82 1.6 N 26 32 14 17 1011.6 - 0.0
23/03:00pm 15.2 11.8 10.6 74 2.4 NW 19 24 10 13 1011.9 1011.9 0.0
23/02:30pm 14.3 10.4 10.7 79 1.9 NW 22 37 12 20 1012.3 - 0.0
23/02:00pm 15.0 12.4 10.8 76 2.2 NNW 15 19 8 10 1012.6 - 0.0
23/01:30pm 15.0 11.9 10.2 73 2.5 NW 17 20 9 11 1013.0 - 0.0
23/01:00pm 14.6 12.5 11.0 79 1.9 NW 13 17 7 9 1013.4 - 0.0
23/12:30pm 15.0 12.8 10.8 76 2.2 NNW 13 19 7 10 1013.9 - 0.0
23/12:00pm 14.7 12.9 10.9 78 2.0 N 11 17 6 9 1014.4 1014.4 0.0
23/11:30am 14.4 12.9 10.4 77 2.1 N 9 13 5 7 1014.6 - 0.0
23/11:00am 14.3 12.7 10.3 77 2.1 NNE 9 11 5 6 1014.7 - 0.0
23/10:30am 14.2 12.8 9.4 73 2.5 NW 7 11 4 6 1015.1 - 0.0
23/10:00am 14.0 12.6 9.0 72 2.5 S 6 7 3 4 1015.4 - 0.0
23/09:30am 13.4 12.2 9.5 77 2.0 SSW 6 9 3 5 1015.8 - 0.0
23/09:00am 12.1 10.5 8.8 80 1.6 S 7 9 4 5 1016.0 1016.0 0.2
23/08:30am 11.4 9.9 9.1 86 1.1 SSW 7 9 4 5 1016.0 - 0.2
23/08:00am 9.4 6.8 7.8 90 0.8 S 11 13 6 7 1015.9 - 0.2
23/07:30am 8.5 7.8 7.1 91 0.7 CALM 0 0 0 0 1015.7 - 0.2
23/07:00am 7.9 5.8 6.5 91 0.6 SSE 7 9 4 5 1015.5 - 0.2
23/06:30am 7.6 4.3 6.2 91 0.6 S 13 17 7 9 1015.3 - 0.2
23/06:00am 8.3 4.7 6.8 90 0.7 S 15 19 8 10 1015.2 1015.2 0.2
23/05:30am 7.2 4.2 5.8 91 0.6 SSE 11 15 6 8 1015.4 - 0.2
23/05:00am 7.7 4.3 6.0 89 0.8 S 13 15 7 8 1015.1 - 0.2
23/04:30am 8.2 5.0 6.7 90 0.7 S 13 15 7 8 1015.2 - 0.2
23/04:00am 7.5 4.1 6.1 91 0.6 S 13 15 7 8 1015.2 - 0.2
23/03:30am 7.0 3.5 5.5 90 0.7 S 13 15 7 8 1015.3 - 0.2
23/03:00am 7.7 4.7 6.2 90 0.7 S 11 13 6 7 1015.2 1015.2 0.2
23/02:30am 8.0 5.8 6.3 89 0.8 SW 7 9 4 5 1015.5 - 0.2
23/02:00am 8.1 5.5 6.2 88 0.9 SSW 9 11 5 6 1015.8 - 0.2
23/01:30am 8.3 5.8 6.6 89 0.8 SSW 9 13 5 7 1015.9 - 0.2
23/01:00am 8.3 5.7 6.3 87 0.9 SSW 9 13 5 7 1015.9 - 0.2
23/12:30am 9.5 6.4 7.3 86 1.0 WSW 13 19 7 10 1015.8 - 0.2
23/12:00am 10.3 7.7 7.7 84 1.2 WSW 11 13 6 7 1015.6 1015.6 0.2
 
Date/Time
EST
Temp
°C
App
Temp
°C
Dew
Point
Rel
Hum
%
Delta-T
°C
Wind Press
QNH
hPa
Press
MSL
hPa
Rain
since 9 am
mm
Dir
 
Spd
km/h
Gust
km/h
Spd
kts
Gust
kts
22/11:30pm 10.6 8.1 8.0 84 1.3 WSW 11 13 6 7 1015.7 - 0.2
22/11:00pm 10.1 6.7 7.7 85 1.2 W 15 17 8 9 1015.6 - 0.2
22/10:30pm 10.6 7.5 7.3 80 1.6 W 13 19 7 10 1015.6 - 0.2
22/10:00pm 12.5 8.4 8.8 78 1.8 WNW 20 26 11 14 1015.6 - 0.2
22/09:30pm 12.7 8.6 8.6 76 2.0 WNW 20 24 11 13 1015.2 - 0.2
22/09:00pm 12.6 8.0 8.3 75 2.1 W 22 26 12 14 1014.8 1014.8 0.2
22/08:30pm 10.6 6.9 6.4 75 2.0 W 15 19 8 10 1014.6 - 0.2
22/08:00pm 11.0 8.0 6.0 71 2.3 W 11 15 6 8 1014.3 - 0.2
22/07:30pm 10.7 6.9 5.9 72 2.2 W 15 17 8 9 1014.1 - 0.2
22/07:00pm 11.5 7.0 6.2 70 2.5 W 19 22 10 12 1013.7 - 0.2
22/06:30pm 12.0 7.5 6.3 68 2.7 W 19 24 10 13 1013.4 - 0.2
22/06:00pm 13.3 8.2 5.9 61 3.5 W 22 28 12 15 1012.8 1012.8 0.2
22/05:30pm 14.3 8.3 5.4 55 4.2 WSW 26 44 14 24 1012.3 - 0.2
22/05:00pm 15.1 9.1 5.3 52 4.6 W 26 33 14 18 1011.8 - 0.2
22/04:30pm 15.9 10.1 6.1 52 4.7 W 26 33 14 18 1011.5 - 0.2
22/04:00pm 16.8 11.4 6.3 50 5.1 WSW 24 35 13 19 1011.3 - 0.2
22/03:30pm 16.9 10.0 6.4 50 5.2 W 32 43 17 23 1010.9 - 0.2
22/03:00pm 17.6 10.8 7.9 53 4.9 W 33 43 18 23 1010.8 1010.8 0.2
22/02:30pm 17.5 10.8 7.3 51 5.1 W 32 39 17 21 1010.4 - 0.2
22/02:00pm 18.0 11.0 8.6 54 4.9 W 35 44 19 24 1010.0 - 0.2
22/01:30pm 18.3 13.5 10.4 60 4.2 W 26 41 14 22 1009.7 - 0.2
22/01:00pm 18.7 12.7 10.8 60 4.3 WNW 33 44 18 24 1009.7 - 0.2
22/12:30pm 18.3 12.7 11.4 64 3.8 WNW 32 39 17 21 1009.6 - 0.2
22/12:00pm 17.7 11.8 11.0 65 3.6 WNW 33 41 18 22 1009.8 1009.8 0.2
22/11:30am 17.4 10.9 10.5 64 3.7 WNW 35 43 19 23 1009.7 - 0.2
22/11:00am 17.4 12.4 12.3 72 2.8 NW 30 35 16 19 1009.7 - 0.2
22/10:30am 17.1 12.3 13.0 77 2.3 WNW 30 35 16 19 1009.9 - 0.2
22/10:00am 17.0 12.8 13.5 80 2.0 WNW 28 33 15 18 1009.9 - 0.2
22/09:30am 16.1 11.4 13.2 83 1.6 WNW 30 39 16 21 1009.7 - 0.0
22/09:00am 16.0 12.0 13.1 83 1.6 NW 26 35 14 19 1009.6 1009.6 13.8
22/08:30am 16.1 12.2 13.4 84 1.5 WNW 26 32 14 17 1009.4 - 13.8
22/08:00am 16.2 11.7 13.7 85 1.4 WNW 30 35 16 19 1009.3 - 13.8
22/07:30am 16.4 12.9 14.4 88 1.1 WNW 26 33 14 18 1008.8 - 13.8
22/07:00am 16.5 12.0 14.9 90 0.9 WNW 32 39 17 21 1008.3 - 13.8
22/06:45am 16.6 11.6 15.0 90 0.9 NW 35 44 19 24 1008.3 - 13.8
22/06:34am 16.5 11.1 15.0 91 0.9 NW 37 48 20 26 1008.1 - 13.8
22/06:31am 16.5 11.2 15.2 92 0.8 NW 37 52 20 28 1008.0 - 13.8
22/06:30am 16.6 10.9 15.3 92 0.8 NW 39 52 21 28 1008.0 - 13.8
22/06:19am 16.3 9.8 15.0 92 0.8 NW 43 59 23 32 1007.6 - 13.8
22/06:00am 16.1 9.4 15.1 94 0.6 NW 44 57 24 31 1007.5 1007.5 13.8
22/05:30am 16.5 9.4 15.0 91 0.9 NW 46 56 25 30 1007.5 - 12.8
22/05:28am 16.4 9.3 14.9 91 0.9 NW 46 59 25 32 1007.5 - 12.8
22/05:23am 16.3 9.5 14.8 91 0.9 NW 44 59 24 32 1007.6 - 12.8
22/05:17am 16.1 9.3 14.8 92 0.7 NW 44 63 24 34 1007.4 - 12.8
22/05:11am 16.2 8.9 14.6 90 0.9 NW 46 63 25 34 1007.4 - 12.8
22/05:00am 16.1 10.2 14.6 91 0.9 NW 39 54 21 29 1007.5 - 12.8
22/04:57am 16.1 10.6 14.8 92 0.7 NW 37 48 20 26 1007.6 - 12.8
22/04:49am 16.0 10.9 14.7 92 0.7 NW 35 46 19 25 1007.8 - 12.8
22/04:30am 16.2 11.6 14.6 90 0.9 WNW 32 44 17 24 1008.1 - 12.0
22/04:22am 16.4 11.5 14.4 88 1.1 WNW 33 41 18 22 1008.0 - 11.8
22/04:00am 17.3 11.7 13.4 78 2.2 NW 35 44 19 24 1007.7 - 11.2

Other Formats:

Comma delimited format used in spreadsheet applications
http://www.bom.gov.au/fwo/IDT60801/IDT60801.95960.axf

JavaScript Object Notation format (JSON) in row-major order
http://www.bom.gov.au/fwo/IDT60801/IDT60801.95960.json